createdAt,value
2023-07-02T00:00:07.460Z,23.05
2023-07-02T00:02:34.481Z,23.04
2023-07-02T00:05:01.404Z,23.02
2023-07-02T00:07:28.290Z,23.02
2023-07-02T00:09:55.505Z,23.00
2023-07-02T00:12:22.324Z,23.00
2023-07-02T00:14:49.115Z,22.99
2023-07-02T00:17:16.115Z,22.98
2023-07-02T00:19:43.212Z,22.96
2023-07-02T00:22:10.445Z,22.96
2023-07-02T00:24:38.067Z,22.95
2023-07-02T00:27:05.823Z,22.95
2023-07-02T00:29:32.609Z,22.93
2023-07-02T00:31:59.399Z,22.92
2023-07-02T00:34:27.592Z,22.91
2023-07-02T00:36:54.493Z,22.89
2023-07-02T00:39:21.404Z,22.86
2023-07-02T00:41:48.241Z,22.85
2023-07-02T00:44:15.434Z,22.84
2023-07-02T00:46:42.451Z,22.83
2023-07-02T00:49:10.061Z,22.82
2023-07-02T00:51:38.701Z,22.83
2023-07-02T00:54:05.677Z,22.82
2023-07-02T00:56:32.645Z,22.79
2023-07-02T00:58:59.996Z,22.79
2023-07-02T01:01:34.640Z,22.78
2023-07-02T01:04:03.318Z,22.77
2023-07-02T01:06:33.075Z,22.75
2023-07-02T01:09:03.904Z,22.73
2023-07-02T01:11:39.599Z,22.73
2023-07-02T01:14:14.972Z,22.71
2023-07-02T01:16:45.686Z,22.71
2023-07-02T01:19:19.962Z,22.68
2023-07-02T01:21:51.030Z,22.67
2023-07-02T01:24:18.944Z,22.66
2023-07-02T01:26:46.904Z,22.66
2023-07-02T01:29:17.907Z,22.64
2023-07-02T01:31:45.875Z,22.63
2023-07-02T01:34:13.499Z,22.64
2023-07-02T01:36:41.231Z,22.63
2023-07-02T01:39:08.134Z,22.62
2023-07-02T01:42:09.130Z,22.61
2023-07-02T01:44:36.472Z,22.58
2023-07-02T01:47:04.267Z,22.56
2023-07-02T01:49:31.071Z,22.55
2023-07-02T01:51:58.580Z,22.55
2023-07-02T01:54:29.855Z,22.55
2023-07-02T01:56:57.573Z,22.54
2023-07-02T01:59:24.867Z,22.52
2023-07-02T02:01:51.987Z,22.50
2023-07-02T02:04:19.433Z,22.49
2023-07-02T02:06:46.568Z,22.48
2023-07-02T02:09:13.478Z,22.43
2023-07-02T02:11:46.799Z,22.44
2023-07-02T02:14:13.715Z,22.42
2023-07-02T02:16:40.816Z,22.42
2023-07-02T02:19:07.769Z,22.40
2023-07-02T02:21:35.032Z,22.40
2023-07-02T02:24:01.865Z,22.39
2023-07-02T02:26:28.705Z,22.37
2023-07-02T02:28:55.532Z,22.36
2023-07-02T02:31:22.379Z,22.35
2023-07-02T02:33:49.667Z,22.35
2023-07-02T02:36:17.919Z,22.32
2023-07-02T02:38:44.764Z,22.31
2023-07-02T02:41:11.550Z,22.30
2023-07-02T02:43:38.415Z,22.30
2023-07-02T02:46:05.196Z,22.31
2023-07-02T02:48:31.990Z,22.30
2023-07-02T02:50:58.810Z,22.28
2023-07-02T02:53:25.651Z,22.28
2023-07-02T02:55:52.436Z,22.25
2023-07-02T02:58:19.219Z,22.24
2023-07-02T03:00:47.274Z,22.23
2023-07-02T03:03:15.024Z,22.21
2023-07-02T03:05:42.035Z,22.19
2023-07-02T03:08:08.886Z,22.16
2023-07-02T03:13:02.529Z,22.11
2023-07-02T03:15:29.339Z,22.09
2023-07-02T03:17:56.302Z,22.06
2023-07-02T03:20:23.464Z,22.04
2023-07-02T03:22:50.246Z,22.01
2023-07-02T03:25:17.381Z,21.98
2023-07-02T03:27:44.332Z,21.95
2023-07-02T03:30:11.401Z,21.91
2023-07-02T03:32:38.242Z,21.89
2023-07-02T03:35:05.481Z,21.87
2023-07-02T03:37:32.307Z,21.84
2023-07-02T03:39:59.928Z,21.83
2023-07-02T03:42:26.805Z,21.82
2023-07-02T03:44:53.757Z,21.81
2023-07-02T03:47:20.797Z,21.81
2023-07-02T03:49:48.717Z,21.83
2023-07-02T03:52:15.516Z,21.84
2023-07-02T03:54:42.411Z,21.86
2023-07-02T03:57:09.199Z,21.87
2023-07-02T03:59:36.387Z,21.89
2023-07-02T04:02:03.244Z,21.93
2023-07-02T04:04:30.216Z,21.97
2023-07-02T04:06:57.355Z,21.99
2023-07-02T04:09:24.234Z,22.03
2023-07-02T04:11:51.039Z,22.05
2023-07-02T04:14:17.911Z,22.08
2023-07-02T04:16:46.002Z,22.11
2023-07-02T04:19:13.284Z,22.12
2023-07-02T04:21:40.186Z,22.13
2023-07-02T04:24:07.220Z,22.16
2023-07-02T04:27:04.352Z,22.15
2023-07-02T04:29:21.816Z,22.15
2023-07-02T04:31:48.686Z,22.15
2023-07-02T04:34:15.601Z,22.14
2023-07-02T04:36:42.418Z,22.13
2023-07-02T04:39:10.163Z,22.12
2023-07-02T04:41:36.993Z,22.12
2023-07-02T04:44:04.164Z,22.14
2023-07-02T04:46:31.170Z,22.16
2023-07-02T04:48:58.230Z,22.18
2023-07-02T04:51:25.111Z,22.22
2023-07-02T04:53:51.952Z,22.26
2023-07-02T04:56:18.741Z,22.30
2023-07-02T04:58:45.597Z,22.35
2023-07-02T05:01:12.418Z,22.43
2023-07-02T05:03:39.910Z,22.50
2023-07-02T05:06:06.857Z,22.58
2023-07-02T05:08:33.658Z,22.64
2023-07-02T05:11:00.496Z,22.73
2023-07-02T05:13:27.450Z,22.81
2023-07-02T05:15:54.268Z,22.90
2023-07-02T05:18:21.078Z,22.99
2023-07-02T05:20:48.078Z,23.05
2023-07-02T05:23:15.237Z,23.12
2023-07-02T05:25:42.123Z,23.17
2023-07-02T05:28:08.938Z,23.22
2023-07-02T05:30:35.726Z,23.31
2023-07-02T05:33:02.656Z,23.39
2023-07-02T05:35:29.558Z,23.48
2023-07-02T05:37:56.456Z,23.58
2023-07-02T05:40:23.391Z,23.69
2023-07-02T05:42:50.262Z,23.80
2023-07-02T05:45:17.196Z,23.91
2023-07-02T05:47:44.044Z,24.00
2023-07-02T05:50:11.007Z,24.07
2023-07-02T05:52:37.871Z,24.12
2023-07-02T05:55:05.192Z,24.16
2023-07-02T05:57:32.042Z,24.19
2023-07-02T05:59:58.898Z,24.23
2023-07-02T06:02:25.888Z,24.24
2023-07-02T06:04:52.881Z,24.31
2023-07-02T06:07:19.824Z,24.37
2023-07-02T06:09:46.695Z,24.44
2023-07-02T06:12:13.649Z,24.53
2023-07-02T06:14:40.434Z,24.63
2023-07-02T06:17:08.939Z,24.75
2023-07-02T06:19:37.708Z,24.85
2023-07-02T06:22:05.203Z,24.95
2023-07-02T06:24:32.545Z,25.03
2023-07-02T06:26:59.479Z,25.09
2023-07-02T06:29:26.516Z,25.13
2023-07-02T06:31:53.376Z,25.14
2023-07-02T06:34:20.151Z,25.16
2023-07-02T06:36:46.989Z,25.14
2023-07-02T06:39:13.895Z,25.12
2023-07-02T06:41:40.707Z,25.11
2023-07-02T06:44:07.559Z,25.09
2023-07-02T06:46:34.376Z,25.07
2023-07-02T06:49:01.215Z,25.06
2023-07-02T06:51:30.272Z,25.04
2023-07-02T06:53:57.229Z,25.02
2023-07-02T06:56:24.046Z,25.00
2023-07-02T06:58:50.890Z,24.97
2023-07-02T07:01:17.755Z,24.93
2023-07-02T07:03:44.727Z,24.91
2023-07-02T07:06:12.651Z,24.89
2023-07-02T07:08:40.281Z,24.86
2023-07-02T07:11:07.085Z,24.85
2023-07-02T07:13:33.974Z,24.83
2023-07-02T07:16:00.935Z,24.79
2023-07-02T07:18:29.705Z,24.75
2023-07-02T07:20:58.238Z,24.74
2023-07-02T07:23:25.043Z,24.72
2023-07-02T07:25:52.244Z,24.71
2023-07-02T07:28:19.107Z,24.71
2023-07-02T07:30:46.022Z,24.73
2023-07-02T07:33:12.921Z,24.75
2023-07-02T07:35:39.771Z,24.76
2023-07-02T07:38:06.565Z,24.79
2023-07-02T07:40:33.478Z,24.80
2023-07-02T07:43:00.278Z,24.80
2023-07-02T07:45:27.071Z,24.79
2023-07-02T07:47:53.952Z,24.78
2023-07-02T07:50:20.798Z,24.76
2023-07-02T07:52:48.983Z,24.76
2023-07-02T07:55:16.014Z,24.79
2023-07-02T07:57:42.879Z,24.84
2023-07-02T08:00:13.103Z,24.90
2023-07-02T08:02:40.338Z,24.95
2023-07-02T08:05:08.339Z,25.01
2023-07-02T08:07:35.278Z,25.09
2023-07-02T08:10:03.741Z,25.21
2023-07-02T08:12:30.672Z,25.31
2023-07-02T08:14:57.911Z,25.43
2023-07-02T08:17:24.790Z,25.56
2023-07-02T08:19:51.749Z,25.69
2023-07-02T08:22:18.551Z,25.80
2023-07-02T08:24:45.409Z,25.92
2023-07-02T08:27:15.155Z,26.03
2023-07-02T08:29:42.221Z,26.17
2023-07-02T08:32:09.347Z,26.27
2023-07-02T08:34:36.172Z,26.40
2023-07-02T08:37:03.177Z,26.53
2023-07-02T08:39:30.059Z,26.67
2023-07-02T08:41:56.945Z,26.78
2023-07-02T08:44:23.801Z,26.89
2023-07-02T08:46:52.256Z,27.01
2023-07-02T08:49:19.272Z,27.07
2023-07-02T08:51:47.798Z,27.15
2023-07-02T08:54:15.529Z,27.26
2023-07-02T08:56:42.471Z,27.35
2023-07-02T08:59:09.998Z,27.45
2023-07-02T09:01:55.235Z,27.53
2023-07-02T09:04:25.625Z,27.58
2023-07-02T09:07:12.763Z,27.64
2023-07-02T09:09:51.408Z,27.73
2023-07-02T09:12:32.526Z,27.83
2023-07-02T09:15:07.086Z,27.91
2023-07-02T09:17:36.265Z,27.96
2023-07-02T09:20:09.339Z,27.98
2023-07-02T09:22:37.259Z,27.99
2023-07-02T09:25:04.576Z,28.04
2023-07-02T09:27:43.091Z,28.08
2023-07-02T09:30:13.715Z,28.16
2023-07-02T09:32:41.381Z,28.26
2023-07-02T09:35:08.626Z,28.34
2023-07-02T09:37:35.831Z,28.45
2023-07-02T09:40:07.779Z,28.54
2023-07-02T09:42:36.401Z,28.61
2023-07-02T09:45:04.000Z,28.71
2023-07-02T09:47:33.645Z,28.80
2023-07-02T09:50:06.929Z,28.89
2023-07-02T09:52:34.723Z,28.95
2023-07-02T09:55:01.958Z,29.01
2023-07-02T09:57:32.294Z,29.06
2023-07-02T10:00:03.651Z,29.11
2023-07-02T10:02:30.615Z,29.18
2023-07-02T10:04:58.176Z,29.27
2023-07-02T10:07:30.002Z,29.38
2023-07-02T10:09:57.807Z,29.50
2023-07-02T10:12:29.552Z,29.58
2023-07-02T10:14:58.652Z,29.65
2023-07-02T10:17:32.458Z,29.70
2023-07-02T10:20:08.532Z,29.74
2023-07-02T10:22:45.330Z,29.78
2023-07-02T10:25:12.244Z,29.83
2023-07-02T10:27:41.268Z,29.90
2023-07-02T10:30:10.195Z,29.98
2023-07-02T10:32:39.392Z,30.06
2023-07-02T10:35:19.589Z,30.14
2023-07-02T10:37:46.908Z,30.18
2023-07-02T10:40:14.263Z,30.17
2023-07-02T10:42:52.129Z,30.14
2023-07-02T10:45:20.125Z,30.09
2023-07-02T10:47:48.067Z,30.08
2023-07-02T10:50:19.703Z,30.05
2023-07-02T10:52:47.809Z,30.01
2023-07-02T10:55:25.566Z,29.98
2023-07-02T10:58:04.848Z,29.99
2023-07-02T11:00:32.039Z,29.97
2023-07-02T11:02:59.614Z,29.94
2023-07-02T11:05:29.642Z,29.93
2023-07-02T11:08:09.393Z,29.93
2023-07-02T11:10:36.433Z,29.92
2023-07-02T11:13:16.684Z,29.92
2023-07-02T11:15:44.192Z,29.99
2023-07-02T11:18:15.745Z,30.04
2023-07-02T11:20:44.769Z,30.12
2023-07-02T11:23:23.594Z,30.20
2023-07-02T11:26:01.220Z,30.32
2023-07-02T11:28:29.759Z,30.41
2023-07-02T11:30:57.177Z,30.51
2023-07-02T11:33:40.623Z,30.58
2023-07-02T11:36:08.844Z,30.66
2023-07-02T11:38:37.137Z,30.72
2023-07-02T11:41:05.023Z,30.76
2023-07-02T11:43:31.936Z,30.77
2023-07-02T11:45:59.045Z,30.83
2023-07-02T11:48:25.815Z,30.89
2023-07-02T11:50:52.640Z,30.94
2023-07-02T11:53:19.591Z,31.03
2023-07-02T11:55:46.677Z,31.11
2023-07-02T11:58:13.787Z,31.22
2023-07-02T12:00:40.642Z,31.34
2023-07-02T12:03:07.800Z,31.44
2023-07-02T12:05:34.742Z,31.52
2023-07-02T12:08:03.909Z,31.56
2023-07-02T12:10:30.797Z,31.58
2023-07-02T12:12:57.664Z,31.56
2023-07-02T12:15:24.452Z,31.58
2023-07-02T12:17:51.351Z,31.53
2023-07-02T12:20:18.186Z,31.53
2023-07-02T12:22:45.802Z,31.53
2023-07-02T12:25:12.767Z,31.50
2023-07-02T12:27:39.643Z,31.51
2023-07-02T12:30:07.241Z,31.51
2023-07-02T12:32:34.260Z,31.53
2023-07-02T12:35:01.154Z,31.59
2023-07-02T12:37:28.053Z,31.62
2023-07-02T12:39:54.879Z,31.70
2023-07-02T12:42:21.697Z,31.70
2023-07-02T12:44:48.496Z,31.69
2023-07-02T12:47:15.384Z,31.69
2023-07-02T12:49:42.153Z,31.69
2023-07-02T12:52:09.108Z,31.66
2023-07-02T12:54:35.936Z,31.62
2023-07-02T12:57:02.891Z,31.57
2023-07-02T12:59:29.711Z,31.52
2023-07-02T13:01:56.820Z,31.49
2023-07-02T13:04:24.068Z,31.48
2023-07-02T13:06:51.201Z,31.52
2023-07-02T13:09:18.496Z,31.58
2023-07-02T13:11:46.080Z,31.65
2023-07-02T13:14:13.409Z,31.74
2023-07-02T13:16:40.825Z,31.82
2023-07-02T13:19:07.727Z,31.90
2023-07-02T13:21:34.993Z,31.99
2023-07-02T13:24:02.509Z,32.08
2023-07-02T13:26:29.606Z,32.16
2023-07-02T13:28:56.855Z,32.21
2023-07-02T13:31:24.776Z,32.28
2023-07-02T13:33:51.726Z,32.33
2023-07-02T13:36:18.858Z,32.41
2023-07-02T13:38:45.922Z,32.47
2023-07-02T13:41:13.010Z,32.49
2023-07-02T13:43:40.386Z,32.54
2023-07-02T13:46:07.795Z,32.59
2023-07-02T13:48:36.183Z,32.64
2023-07-02T13:51:03.861Z,32.70
2023-07-02T13:53:31.263Z,32.73
2023-07-02T13:55:58.425Z,32.79
2023-07-02T13:58:30.415Z,32.79
2023-07-02T14:00:58.121Z,32.76
2023-07-02T14:03:25.590Z,32.72
2023-07-02T14:05:52.988Z,32.66
2023-07-02T14:08:20.337Z,32.61
2023-07-02T14:10:47.738Z,32.55
2023-07-02T14:13:15.040Z,32.56
2023-07-02T14:15:42.249Z,32.57
2023-07-02T14:18:09.331Z,32.57
2023-07-02T14:20:36.572Z,32.58
2023-07-02T14:23:03.905Z,32.65
2023-07-02T14:25:40.371Z,32.71
2023-07-02T14:28:09.620Z,32.79
2023-07-02T14:30:37.524Z,32.87
2023-07-02T14:33:04.995Z,32.91
2023-07-02T14:35:32.367Z,32.99
2023-07-02T14:38:00.019Z,33.03
2023-07-02T14:40:27.198Z,33.06
2023-07-02T14:42:54.415Z,33.07
2023-07-02T14:45:21.602Z,33.03
2023-07-02T14:47:48.758Z,32.98
2023-07-02T14:50:18.954Z,32.94
2023-07-02T14:52:46.438Z,32.91
2023-07-02T14:55:13.272Z,32.85
2023-07-02T14:57:40.174Z,32.82
2023-07-02T15:00:07.817Z,32.79
2023-07-02T15:02:34.851Z,32.78
2023-07-02T15:05:02.392Z,32.78
2023-07-02T15:07:29.335Z,32.83
2023-07-02T15:09:56.508Z,32.87
2023-07-02T15:12:23.337Z,32.92
2023-07-02T15:14:50.215Z,32.94
2023-07-02T15:17:17.136Z,32.94
2023-07-02T15:19:44.043Z,32.93
2023-07-02T15:22:10.846Z,32.89
2023-07-02T15:24:37.879Z,32.88
2023-07-02T15:27:05.144Z,32.85
2023-07-02T15:29:31.915Z,32.81
2023-07-02T15:31:58.822Z,32.78
2023-07-02T15:34:25.637Z,32.78
2023-07-02T15:36:54.978Z,32.77
2023-07-02T15:39:24.057Z,32.75
2023-07-02T15:41:51.146Z,32.76
2023-07-02T15:44:18.047Z,32.74
2023-07-02T15:46:45.628Z,32.70
2023-07-02T15:49:15.367Z,32.63
2023-07-02T15:51:43.479Z,32.60
2023-07-02T15:54:10.881Z,32.57
2023-07-02T15:56:37.690Z,32.54
2023-07-02T15:59:06.547Z,32.48
2023-07-02T16:01:35.982Z,32.40
2023-07-02T16:04:03.307Z,32.34
2023-07-02T16:06:33.897Z,32.27
2023-07-02T16:09:02.183Z,32.23
2023-07-02T16:11:30.293Z,32.15
2023-07-02T16:13:58.550Z,32.10
2023-07-02T16:16:25.468Z,32.04
2023-07-02T16:18:52.324Z,31.97
2023-07-02T16:21:19.347Z,31.91
2023-07-02T16:23:46.499Z,31.85
2023-07-02T16:26:13.463Z,31.80
2023-07-02T16:28:40.894Z,31.74
2023-07-02T16:31:11.149Z,31.67
2023-07-02T16:33:38.677Z,31.60
2023-07-02T16:36:11.107Z,31.54
2023-07-02T16:38:38.172Z,31.46
2023-07-02T16:41:07.358Z,31.40
2023-07-02T16:43:35.021Z,31.31
2023-07-02T16:46:02.021Z,31.23
2023-07-02T16:48:29.106Z,31.15
2023-07-02T16:51:03.253Z,31.06
2023-07-02T16:53:30.521Z,30.98
2023-07-02T16:56:02.135Z,30.90
2023-07-02T16:58:31.228Z,30.79
2023-07-02T17:01:08.092Z,30.70
2023-07-02T17:03:35.328Z,30.62
2023-07-02T17:06:04.265Z,30.55
2023-07-02T17:08:40.406Z,30.50
2023-07-02T17:11:09.077Z,30.39
2023-07-02T17:13:36.281Z,30.33
2023-07-02T17:16:06.469Z,30.27
2023-07-02T17:18:34.582Z,30.20
2023-07-02T17:21:02.279Z,30.17
2023-07-02T17:23:29.725Z,30.13
2023-07-02T17:26:07.737Z,30.05
2023-07-02T17:28:34.992Z,30.02
2023-07-02T17:31:03.041Z,29.97
2023-07-02T17:33:30.353Z,29.90
2023-07-02T17:35:57.573Z,29.86
2023-07-02T17:38:24.977Z,29.82
2023-07-02T17:40:52.225Z,29.78
2023-07-02T17:43:19.677Z,29.73
2023-07-02T17:45:57.487Z,29.68
2023-07-02T17:48:28.229Z,29.61
2023-07-02T17:51:03.107Z,29.56
2023-07-02T17:53:30.467Z,29.51
2023-07-02T17:55:58.321Z,29.48
2023-07-02T17:58:25.747Z,29.41
2023-07-02T18:00:53.207Z,29.35
2023-07-02T18:03:20.705Z,29.30
2023-07-02T18:05:49.521Z,29.26
2023-07-02T18:08:16.638Z,29.21
2023-07-02T18:10:48.027Z,29.16
2023-07-02T18:13:15.454Z,29.09
2023-07-02T18:15:42.554Z,29.05
2023-07-02T18:18:10.785Z,28.99
2023-07-02T18:20:37.895Z,28.91
2023-07-02T18:23:05.024Z,28.80
2023-07-02T18:25:32.122Z,28.65
2023-07-02T18:28:17.406Z,28.51
2023-07-02T18:30:46.090Z,28.33
2023-07-02T18:33:13.506Z,28.22
2023-07-02T18:35:42.532Z,28.00
2023-07-02T18:38:11.209Z,27.89
2023-07-02T18:40:39.474Z,27.80
2023-07-02T18:43:07.776Z,27.72
2023-07-02T18:45:35.864Z,27.62
2023-07-02T18:48:04.955Z,27.55
2023-07-02T18:50:33.220Z,27.43
2023-07-02T18:53:02.321Z,27.33
2023-07-02T18:55:30.652Z,27.28
2023-07-02T18:57:58.675Z,27.18
2023-07-02T19:00:26.966Z,27.11
2023-07-02T19:02:55.434Z,27.05
2023-07-02T19:05:25.454Z,26.99
2023-07-02T19:07:54.540Z,26.97
2023-07-02T19:10:22.151Z,26.88
2023-07-02T19:12:49.516Z,26.80
2023-07-02T19:15:16.556Z,26.74
2023-07-02T19:17:44.834Z,26.62
2023-07-02T19:20:12.613Z,26.48
2023-07-02T19:22:39.795Z,26.39
2023-07-02T19:25:07.670Z,26.29
2023-07-02T19:27:34.961Z,26.22
2023-07-02T19:30:02.489Z,26.17
2023-07-02T19:32:33.220Z,26.12
2023-07-02T19:35:00.509Z,26.10
2023-07-02T19:37:27.476Z,26.03
2023-07-02T19:39:54.831Z,25.99
2023-07-02T19:42:21.704Z,25.95
2023-07-02T19:44:53.380Z,25.93
2023-07-02T19:47:20.275Z,25.89
2023-07-02T19:49:47.377Z,25.86
2023-07-02T19:52:22.033Z,25.79
2023-07-02T19:54:49.396Z,25.75
2023-07-02T19:57:17.628Z,25.69
2023-07-02T19:59:48.049Z,25.63
2023-07-02T20:02:19.494Z,25.60
2023-07-02T20:04:58.405Z,25.54
2023-07-02T20:07:28.769Z,25.48
2023-07-02T20:09:57.144Z,25.43
2023-07-02T20:12:29.345Z,25.34
2023-07-02T20:15:01.205Z,25.29
2023-07-02T20:17:30.389Z,25.26
2023-07-02T20:19:59.888Z,25.20
2023-07-02T20:22:27.630Z,25.16
2023-07-02T20:24:58.115Z,25.09
2023-07-02T20:27:31.663Z,25.03
2023-07-02T20:29:58.650Z,24.99
2023-07-02T20:32:25.808Z,24.95
2023-07-02T20:34:52.645Z,24.89
2023-07-02T20:37:22.328Z,24.82
2023-07-02T20:39:49.368Z,24.71
2023-07-02T20:42:19.523Z,24.67
2023-07-02T20:44:53.351Z,24.64
2023-07-02T20:47:25.021Z,24.59
2023-07-02T20:49:53.222Z,24.55
2023-07-02T20:52:25.081Z,24.52
2023-07-02T20:54:56.313Z,24.47
2023-07-02T20:57:23.806Z,24.42
2023-07-02T20:59:51.533Z,24.40
2023-07-02T21:02:20.350Z,24.37
2023-07-02T21:04:48.573Z,24.31
2023-07-02T21:07:15.429Z,24.31
2023-07-02T21:09:42.320Z,24.30
2023-07-02T21:12:09.739Z,24.28
2023-07-02T21:14:36.785Z,24.25
2023-07-02T21:17:03.905Z,24.23
2023-07-02T21:19:31.264Z,24.22
2023-07-02T21:21:58.078Z,24.19
2023-07-02T21:24:24.921Z,24.18
2023-07-02T21:26:51.727Z,24.16
2023-07-02T21:29:18.524Z,24.13
2023-07-02T21:31:45.451Z,24.09
2023-07-02T21:34:12.376Z,24.05
2023-07-02T21:36:39.184Z,24.02
2023-07-02T21:39:05.985Z,23.97
2023-07-02T21:41:33.351Z,23.95
2023-07-02T21:44:00.340Z,23.93
2023-07-02T21:46:27.583Z,23.87
2023-07-02T21:48:54.408Z,23.86
2023-07-02T21:51:22.874Z,23.82
2023-07-02T21:53:50.468Z,23.81
2023-07-02T21:56:18.879Z,23.81
2023-07-02T21:58:49.260Z,23.75
2023-07-02T22:01:16.697Z,23.72
2023-07-02T22:03:43.709Z,23.69
2023-07-02T22:06:10.740Z,23.68
2023-07-02T22:08:38.594Z,23.63
2023-07-02T22:11:21.732Z,23.62
2023-07-02T22:13:50.395Z,23.58
2023-07-02T22:16:17.177Z,23.54
2023-07-02T22:18:44.126Z,23.52
2023-07-02T22:21:10.993Z,23.48
2023-07-02T22:23:38.621Z,23.47
2023-07-02T22:26:05.701Z,23.45
2023-07-02T22:28:32.703Z,23.40
2023-07-02T22:30:59.719Z,23.39
2023-07-02T22:33:26.722Z,23.36
2023-07-02T22:35:53.507Z,23.34
2023-07-02T22:38:20.340Z,23.33
2023-07-02T22:40:47.199Z,23.30
2023-07-02T22:43:14.178Z,23.26
2023-07-02T22:45:41.220Z,23.24
2023-07-02T22:48:08.078Z,23.21
2023-07-02T22:50:35.233Z,23.19
2023-07-02T22:53:02.107Z,23.16
2023-07-02T22:55:33.240Z,23.16
2023-07-02T22:58:02.351Z,23.13
2023-07-02T23:00:29.308Z,23.11
2023-07-02T23:02:56.294Z,23.10
2023-07-02T23:05:23.913Z,23.08
2023-07-02T23:07:51.114Z,23.06
2023-07-02T23:10:18.218Z,23.04
2023-07-02T23:12:48.404Z,23.04
2023-07-02T23:15:17.372Z,23.01
2023-07-02T23:17:46.743Z,23.00
2023-07-02T23:20:15.695Z,22.97
2023-07-02T23:22:43.604Z,22.94
2023-07-02T23:25:19.943Z,22.93
2023-07-02T23:27:47.965Z,22.91
2023-07-02T23:30:18.411Z,22.88
2023-07-02T23:32:46.906Z,22.85
2023-07-02T23:35:16.120Z,22.82
2023-07-02T23:37:46.086Z,22.79
2023-07-02T23:40:17.142Z,22.77
2023-07-02T23:42:45.269Z,22.74
2023-07-02T23:45:14.124Z,22.71
2023-07-02T23:47:42.222Z,22.68
2023-07-02T23:50:13.194Z,22.63
2023-07-02T23:52:40.309Z,22.60
2023-07-02T23:55:09.858Z,22.55
2023-07-02T23:57:37.276Z,22.52
